sensor_id;sensor_type;location;lat;lon;timestamp;P1;durP1;ratioP1;P2;durP2;ratioP2
6513;SDS011;3290;47.716;9.070;2023-08-06T00:01:11;2.30;;;1.93;;
6513;SDS011;3290;47.716;9.070;2023-08-06T00:03:36;2.63;;;2.37;;
6513;SDS011;3290;47.716;9.070;2023-08-06T00:06:02;2.30;;;2.10;;
6513;SDS011;3290;47.716;9.070;2023-08-06T00:08:29;1.90;;;1.77;;
6513;SDS011;3290;47.716;9.070;2023-08-06T00:10:54;2.23;;;2.03;;
6513;SDS011;3290;47.716;9.070;2023-08-06T00:13:20;2.33;;;2.10;;
6513;SDS011;3290;47.716;9.070;2023-08-06T00:15:45;3.30;;;2.80;;
6513;SDS011;3290;47.716;9.070;2023-08-06T00:18:11;4.50;;;2.50;;
6513;SDS011;3290;47.716;9.070;2023-08-06T00:20:38;3.43;;;2.03;;
6513;SDS011;3290;47.716;9.070;2023-08-06T00:23:04;2.43;;;2.23;;
6513;SDS011;3290;47.716;9.070;2023-08-06T00:25:29;2.13;;;2.00;;
6513;SDS011;3290;47.716;9.070;2023-08-06T00:27:55;2.60;;;2.40;;
6513;SDS011;3290;47.716;9.070;2023-08-06T00:30:21;4.00;;;2.07;;
6513;SDS011;3290;47.716;9.070;2023-08-06T00:32:46;4.10;;;2.60;;
6513;SDS011;3290;47.716;9.070;2023-08-06T00:35:12;2.67;;;2.00;;
6513;SDS011;3290;47.716;9.070;2023-08-06T00:37:38;2.90;;;2.03;;
6513;SDS011;3290;47.716;9.070;2023-08-06T00:40:04;4.67;;;2.67;;
6513;SDS011;3290;47.716;9.070;2023-08-06T00:42:30;2.90;;;2.47;;
6513;SDS011;3290;47.716;9.070;2023-08-06T00:44:56;2.90;;;2.37;;
6513;SDS011;3290;47.716;9.070;2023-08-06T00:47:21;5.50;;;2.33;;
6513;SDS011;3290;47.716;9.070;2023-08-06T00:49:46;3.30;;;2.50;;
6513;SDS011;3290;47.716;9.070;2023-08-06T00:52:12;6.70;;;2.67;;
6513;SDS011;3290;47.716;9.070;2023-08-06T00:54:39;4.97;;;2.30;;
6513;SDS011;3290;47.716;9.070;2023-08-06T00:57:04;2.70;;;2.37;;
6513;SDS011;3290;47.716;9.070;2023-08-06T00:59:33;2.30;;;2.10;;
6513;SDS011;3290;47.716;9.070;2023-08-06T01:01:59;4.33;;;2.37;;
6513;SDS011;3290;47.716;9.070;2023-08-06T01:04:25;2.53;;;2.33;;
6513;SDS011;3290;47.716;9.070;2023-08-06T01:15:03;4.73;;;2.87;;
6513;SDS011;3290;47.716;9.070;2023-08-06T01:17:31;3.97;;;2.80;;
6513;SDS011;3290;47.716;9.070;2023-08-06T01:19:57;2.43;;;2.23;;
6513;SDS011;3290;47.716;9.070;2023-08-06T01:22:22;3.70;;;2.90;;
6513;SDS011;3290;47.716;9.070;2023-08-06T01:24:48;3.73;;;2.83;;
6513;SDS011;3290;47.716;9.070;2023-08-06T01:27:17;5.73;;;2.47;;
6513;SDS011;3290;47.716;9.070;2023-08-06T01:30:02;3.53;;;2.57;;
6513;SDS011;3290;47.716;9.070;2023-08-06T01:32:31;7.90;;;2.37;;
6513;SDS011;3290;47.716;9.070;2023-08-06T01:35:00;3.17;;;2.80;;
6513;SDS011;3290;47.716;9.070;2023-08-06T01:37:28;3.60;;;2.00;;
6513;SDS011;3290;47.716;9.070;2023-08-06T01:39:54;3.50;;;2.50;;
6513;SDS011;3290;47.716;9.070;2023-08-06T01:42:20;3.13;;;2.73;;
6513;SDS011;3290;47.716;9.070;2023-08-06T01:44:45;2.80;;;2.50;;
6513;SDS011;3290;47.716;9.070;2023-08-06T01:47:10;4.40;;;2.20;;
6513;SDS011;3290;47.716;9.070;2023-08-06T01:49:36;2.37;;;2.17;;
6513;SDS011;3290;47.716;9.070;2023-08-06T01:52:01;2.60;;;2.40;;
6513;SDS011;3290;47.716;9.070;2023-08-06T01:54:27;2.30;;;2.10;;
6513;SDS011;3290;47.716;9.070;2023-08-06T01:56:52;2.67;;;2.47;;
6513;SDS011;3290;47.716;9.070;2023-08-06T01:59:18;2.47;;;2.27;;
6513;SDS011;3290;47.716;9.070;2023-08-06T02:01:43;2.90;;;2.20;;
6513;SDS011;3290;47.716;9.070;2023-08-06T02:04:08;2.77;;;1.93;;
6513;SDS011;3290;47.716;9.070;2023-08-06T02:06:34;3.03;;;2.37;;
6513;SDS011;3290;47.716;9.070;2023-08-06T02:08:59;3.87;;;2.80;;
6513;SDS011;3290;47.716;9.070;2023-08-06T02:11:24;4.23;;;2.57;;
6513;SDS011;3290;47.716;9.070;2023-08-06T02:13:50;4.37;;;2.40;;
6513;SDS011;3290;47.716;9.070;2023-08-06T02:16:15;3.63;;;2.50;;
6513;SDS011;3290;47.716;9.070;2023-08-06T02:18:40;2.30;;;2.10;;
6513;SDS011;3290;47.716;9.070;2023-08-06T02:21:06;3.30;;;2.30;;
6513;SDS011;3290;47.716;9.070;2023-08-06T02:23:31;4.93;;;2.90;;
6513;SDS011;3290;47.716;9.070;2023-08-06T02:26:00;2.30;;;2.10;;
6513;SDS011;3290;47.716;9.070;2023-08-06T02:28:26;3.87;;;2.13;;
6513;SDS011;3290;47.716;9.070;2023-08-06T02:30:52;2.20;;;2.00;;
6513;SDS011;3290;47.716;9.070;2023-08-06T02:33:18;2.47;;;2.27;;
6513;SDS011;3290;47.716;9.070;2023-08-06T02:35:43;6.73;;;2.10;;
6513;SDS011;3290;47.716;9.070;2023-08-06T02:38:09;4.73;;;1.83;;
6513;SDS011;3290;47.716;9.070;2023-08-06T02:40:34;3.77;;;2.30;;
6513;SDS011;3290;47.716;9.070;2023-08-06T02:43:00;3.00;;;2.47;;
6513;SDS011;3290;47.716;9.070;2023-08-06T02:45:25;1.90;;;1.73;;
6513;SDS011;3290;47.716;9.070;2023-08-06T02:47:50;1.87;;;1.30;;
6513;SDS011;3290;47.716;9.070;2023-08-06T02:50:16;2.80;;;2.00;;
6513;SDS011;3290;47.716;9.070;2023-08-06T02:52:41;2.17;;;1.97;;
6513;SDS011;3290;47.716;9.070;2023-08-06T02:55:06;1.90;;;1.67;;
6513;SDS011;3290;47.716;9.070;2023-08-06T02:57:32;2.53;;;1.97;;
6513;SDS011;3290;47.716;9.070;2023-08-06T02:59:57;5.50;;;2.30;;
6513;SDS011;3290;47.716;9.070;2023-08-06T03:02:23;2.77;;;2.23;;
6513;SDS011;3290;47.716;9.070;2023-08-06T03:04:48;5.33;;;2.10;;
6513;SDS011;3290;47.716;9.070;2023-08-06T03:07:14;2.40;;;2.07;;
6513;SDS011;3290;47.716;9.070;2023-08-06T03:09:39;2.60;;;2.40;;
6513;SDS011;3290;47.716;9.070;2023-08-06T03:12:04;2.20;;;1.93;;
6513;SDS011;3290;47.716;9.070;2023-08-06T03:14:30;2.10;;;1.60;;
6513;SDS011;3290;47.716;9.070;2023-08-06T03:16:55;2.17;;;1.87;;
6513;SDS011;3290;47.716;9.070;2023-08-06T03:19:21;2.00;;;1.80;;
6513;SDS011;3290;47.716;9.070;2023-08-06T03:21:46;2.10;;;1.90;;
6513;SDS011;3290;47.716;9.070;2023-08-06T03:24:13;3.50;;;1.90;;
6513;SDS011;3290;47.716;9.070;2023-08-06T03:26:39;2.27;;;1.73;;
6513;SDS011;3290;47.716;9.070;2023-08-06T03:29:04;3.73;;;1.60;;
6513;SDS011;3290;47.716;9.070;2023-08-06T03:31:29;2.17;;;1.73;;
6513;SDS011;3290;47.716;9.070;2023-08-06T03:33:55;3.43;;;1.73;;
6513;SDS011;3290;47.716;9.070;2023-08-06T03:36:20;3.70;;;1.87;;
6513;SDS011;3290;47.716;9.070;2023-08-06T03:38:46;1.87;;;1.60;;
6513;SDS011;3290;47.716;9.070;2023-08-06T03:41:11;1.53;;;1.20;;
6513;SDS011;3290;47.716;9.070;2023-08-06T03:43:36;2.77;;;1.70;;
6513;SDS011;3290;47.716;9.070;2023-08-06T03:46:02;2.80;;;2.20;;
6513;SDS011;3290;47.716;9.070;2023-08-06T03:48:27;2.90;;;1.70;;
6513;SDS011;3290;47.716;9.070;2023-08-06T03:50:52;3.70;;;1.70;;
6513;SDS011;3290;47.716;9.070;2023-08-06T03:53:18;1.67;;;1.57;;
6513;SDS011;3290;47.716;9.070;2023-08-06T03:55:43;3.90;;;1.70;;
6513;SDS011;3290;47.716;9.070;2023-08-06T03:58:08;7.17;;;1.77;;
6513;SDS011;3290;47.716;9.070;2023-08-06T04:00:34;1.73;;;1.60;;
6513;SDS011;3290;47.716;9.070;2023-08-06T04:02:59;1.80;;;1.60;;
6513;SDS011;3290;47.716;9.070;2023-08-06T04:05:24;6.27;;;1.73;;
6513;SDS011;3290;47.716;9.070;2023-08-06T04:07:50;1.73;;;1.37;;
6513;SDS011;3290;47.716;9.070;2023-08-06T04:10:15;2.50;;;1.30;;
6513;SDS011;3290;47.716;9.070;2023-08-06T04:12:40;2.00;;;1.40;;
6513;SDS011;3290;47.716;9.070;2023-08-06T04:15:06;1.50;;;1.20;;
6513;SDS011;3290;47.716;9.070;2023-08-06T04:17:32;4.87;;;1.40;;
6513;SDS011;3290;47.716;9.070;2023-08-06T04:19:57;1.67;;;1.40;;
6513;SDS011;3290;47.716;9.070;2023-08-06T04:22:23;3.40;;;1.50;;
6513;SDS011;3290;47.716;9.070;2023-08-06T04:24:49;2.13;;;1.60;;
6513;SDS011;3290;47.716;9.070;2023-08-06T04:27:15;1.90;;;1.40;;
6513;SDS011;3290;47.716;9.070;2023-08-06T04:29:41;1.40;;;1.30;;
6513;SDS011;3290;47.716;9.070;2023-08-06T04:32:08;2.63;;;1.40;;
6513;SDS011;3290;47.716;9.070;2023-08-06T04:34:35;2.40;;;1.63;;
6513;SDS011;3290;47.716;9.070;2023-08-06T04:37:02;4.67;;;2.47;;
6513;SDS011;3290;47.716;9.070;2023-08-06T04:39:28;3.00;;;1.37;;
6513;SDS011;3290;47.716;9.070;2023-08-06T04:41:57;2.07;;;1.40;;
6513;SDS011;3290;47.716;9.070;2023-08-06T04:44:23;3.43;;;1.83;;
6513;SDS011;3290;47.716;9.070;2023-08-06T04:46:48;1.97;;;1.67;;
6513;SDS011;3290;47.716;9.070;2023-08-06T04:49:14;1.30;;;1.20;;
6513;SDS011;3290;47.716;9.070;2023-08-06T04:51:40;3.30;;;1.40;;
6513;SDS011;3290;47.716;9.070;2023-08-06T04:54:05;2.43;;;1.50;;
6513;SDS011;3290;47.716;9.070;2023-08-06T04:56:30;3.43;;;0.93;;
6513;SDS011;3290;47.716;9.070;2023-08-06T04:58:57;3.20;;;1.47;;
6513;SDS011;3290;47.716;9.070;2023-08-06T05:01:24;2.77;;;1.13;;
6513;SDS011;3290;47.716;9.070;2023-08-06T05:03:49;1.63;;;0.90;;
6513;SDS011;3290;47.716;9.070;2023-08-06T05:06:15;2.97;;;1.27;;
6513;SDS011;3290;47.716;9.070;2023-08-06T05:08:40;3.23;;;1.13;;
6513;SDS011;3290;47.716;9.070;2023-08-06T05:11:05;2.90;;;1.10;;
6513;SDS011;3290;47.716;9.070;2023-08-06T05:13:31;2.40;;;1.17;;
6513;SDS011;3290;47.716;9.070;2023-08-06T05:15:56;1.80;;;1.20;;
6513;SDS011;3290;47.716;9.070;2023-08-06T05:18:22;2.93;;;1.20;;
6513;SDS011;3290;47.716;9.070;2023-08-06T05:20:47;1.70;;;1.03;;
6513;SDS011;3290;47.716;9.070;2023-08-06T05:23:12;4.20;;;1.20;;
6513;SDS011;3290;47.716;9.070;2023-08-06T05:25:38;2.90;;;1.10;;
6513;SDS011;3290;47.716;9.070;2023-08-06T05:28:03;4.10;;;0.90;;
6513;SDS011;3290;47.716;9.070;2023-08-06T05:30:29;2.90;;;1.20;;
6513;SDS011;3290;47.716;9.070;2023-08-06T05:32:55;1.67;;;1.00;;
6513;SDS011;3290;47.716;9.070;2023-08-06T05:35:20;2.50;;;0.80;;
6513;SDS011;3290;47.716;9.070;2023-08-06T05:37:46;1.20;;;0.77;;
6513;SDS011;3290;47.716;9.070;2023-08-06T05:40:12;1.00;;;0.60;;
6513;SDS011;3290;47.716;9.070;2023-08-06T05:42:37;1.00;;;0.83;;
6513;SDS011;3290;47.716;9.070;2023-08-06T05:45:02;1.43;;;0.70;;
6513;SDS011;3290;47.716;9.070;2023-08-06T05:47:28;1.07;;;0.80;;
6513;SDS011;3290;47.716;9.070;2023-08-06T05:49:53;0.70;;;0.70;;
6513;SDS011;3290;47.716;9.070;2023-08-06T05:52:19;0.80;;;0.70;;
6513;SDS011;3290;47.716;9.070;2023-08-06T05:54:44;0.93;;;0.80;;
6513;SDS011;3290;47.716;9.070;2023-08-06T05:57:09;0.70;;;0.60;;
6513;SDS011;3290;47.716;9.070;2023-08-06T05:59:35;1.57;;;0.90;;
6513;SDS011;3290;47.716;9.070;2023-08-06T06:02:00;1.60;;;0.70;;
6513;SDS011;3290;47.716;9.070;2023-08-06T06:04:25;3.03;;;0.80;;
6513;SDS011;3290;47.716;9.070;2023-08-06T06:06:51;10.43;;;1.23;;
6513;SDS011;3290;47.716;9.070;2023-08-06T06:09:16;3.13;;;1.10;;
6513;SDS011;3290;47.716;9.070;2023-08-06T06:11:42;2.47;;;0.90;;
6513;SDS011;3290;47.716;9.070;2023-08-06T06:14:07;2.07;;;0.70;;
6513;SDS011;3290;47.716;9.070;2023-08-06T06:16:33;1.23;;;1.00;;
6513;SDS011;3290;47.716;9.070;2023-08-06T06:18:59;2.57;;;0.90;;
6513;SDS011;3290;47.716;9.070;2023-08-06T06:21:24;2.00;;;1.07;;
6513;SDS011;3290;47.716;9.070;2023-08-06T06:23:49;1.63;;;1.17;;
6513;SDS011;3290;47.716;9.070;2023-08-06T06:26:16;6.57;;;1.20;;
6513;SDS011;3290;47.716;9.070;2023-08-06T06:28:43;1.80;;;1.00;;
6513;SDS011;3290;47.716;9.070;2023-08-06T06:31:08;1.03;;;0.90;;
6513;SDS011;3290;47.716;9.070;2023-08-06T06:33:34;4.10;;;1.53;;
6513;SDS011;3290;47.716;9.070;2023-08-06T06:35:59;1.03;;;0.90;;
6513;SDS011;3290;47.716;9.070;2023-08-06T06:38:25;1.43;;;0.90;;
6513;SDS011;3290;47.716;9.070;2023-08-06T06:40:54;3.20;;;1.20;;
6513;SDS011;3290;47.716;9.070;2023-08-06T06:43:23;3.93;;;0.90;;
6513;SDS011;3290;47.716;9.070;2023-08-06T06:45:52;1.70;;;1.00;;
6513;SDS011;3290;47.716;9.070;2023-08-06T06:48:19;7.50;;;1.33;;
6513;SDS011;3290;47.716;9.070;2023-08-06T06:50:47;4.13;;;1.20;;
6513;SDS011;3290;47.716;9.070;2023-08-06T06:53:13;2.20;;;0.90;;
6513;SDS011;3290;47.716;9.070;2023-08-06T06:55:38;2.63;;;0.83;;
6513;SDS011;3290;47.716;9.070;2023-08-06T06:58:04;0.90;;;0.80;;
6513;SDS011;3290;47.716;9.070;2023-08-06T07:00:29;1.10;;;1.00;;
6513;SDS011;3290;47.716;9.070;2023-08-06T07:02:54;3.77;;;2.93;;
6513;SDS011;3290;47.716;9.070;2023-08-06T07:05:20;1.97;;;0.90;;
6513;SDS011;3290;47.716;9.070;2023-08-06T07:07:45;4.37;;;1.40;;
6513;SDS011;3290;47.716;9.070;2023-08-06T07:10:10;1.33;;;1.13;;
6513;SDS011;3290;47.716;9.070;2023-08-06T07:12:36;1.10;;;1.00;;
6513;SDS011;3290;47.716;9.070;2023-08-06T07:15:03;2.00;;;0.80;;
6513;SDS011;3290;47.716;9.070;2023-08-06T07:17:31;4.83;;;1.07;;
6513;SDS011;3290;47.716;9.070;2023-08-06T07:19:56;2.77;;;0.90;;
6513;SDS011;3290;47.716;9.070;2023-08-06T07:22:21;9.80;;;1.07;;
6513;SDS011;3290;47.716;9.070;2023-08-06T07:24:47;5.23;;;0.90;;
6513;SDS011;3290;47.716;9.070;2023-08-06T07:27:12;0.90;;;0.73;;
6513;SDS011;3290;47.716;9.070;2023-08-06T07:29:37;2.60;;;1.27;;
6513;SDS011;3290;47.716;9.070;2023-08-06T07:32:03;3.23;;;0.87;;
6513;SDS011;3290;47.716;9.070;2023-08-06T07:34:28;1.80;;;0.90;;
6513;SDS011;3290;47.716;9.070;2023-08-06T07:36:54;1.73;;;0.90;;
6513;SDS011;3290;47.716;9.070;2023-08-06T07:39:19;0.87;;;0.60;;
6513;SDS011;3290;47.716;9.070;2023-08-06T07:41:44;2.27;;;1.23;;
6513;SDS011;3290;47.716;9.070;2023-08-06T07:44:11;1.10;;;0.90;;
6513;SDS011;3290;47.716;9.070;2023-08-06T07:46:36;11.20;;;1.10;;
6513;SDS011;3290;47.716;9.070;2023-08-06T07:49:01;1.27;;;0.83;;
6513;SDS011;3290;47.716;9.070;2023-08-06T07:51:27;1.70;;;0.90;;
6513;SDS011;3290;47.716;9.070;2023-08-06T07:53:53;1.97;;;0.80;;
6513;SDS011;3290;47.716;9.070;2023-08-06T07:56:18;1.33;;;0.80;;
6513;SDS011;3290;47.716;9.070;2023-08-06T07:58:44;3.80;;;1.00;;
6513;SDS011;3290;47.716;9.070;2023-08-06T08:01:09;2.50;;;0.80;;
6513;SDS011;3290;47.716;9.070;2023-08-06T08:03:34;0.70;;;0.60;;
6513;SDS011;3290;47.716;9.070;2023-08-06T08:06:00;8.87;;;0.80;;
6513;SDS011;3290;47.716;9.070;2023-08-06T08:08:25;1.47;;;0.60;;
6513;SDS011;3290;47.716;9.070;2023-08-06T08:10:52;0.80;;;0.70;;
6513;SDS011;3290;47.716;9.070;2023-08-06T08:13:17;1.73;;;0.60;;
6513;SDS011;3290;47.716;9.070;2023-08-06T08:15:43;1.23;;;0.70;;
6513;SDS011;3290;47.716;9.070;2023-08-06T08:18:08;1.53;;;0.80;;
6513;SDS011;3290;47.716;9.070;2023-08-06T08:20:34;0.80;;;0.60;;
6513;SDS011;3290;47.716;9.070;2023-08-06T08:23:00;2.40;;;1.30;;
6513;SDS011;3290;47.716;9.070;2023-08-06T08:25:26;5.20;;;1.00;;
6513;SDS011;3290;47.716;9.070;2023-08-06T08:27:53;0.70;;;0.70;;
6513;SDS011;3290;47.716;9.070;2023-08-06T08:30:21;1.03;;;0.80;;
6513;SDS011;3290;47.716;9.070;2023-08-06T08:32:47;1.63;;;1.00;;
6513;SDS011;3290;47.716;9.070;2023-08-06T08:35:13;1.67;;;0.60;;
6513;SDS011;3290;47.716;9.070;2023-08-06T08:37:38;0.93;;;0.70;;
6513;SDS011;3290;47.716;9.070;2023-08-06T08:40:05;1.53;;;0.90;;
6513;SDS011;3290;47.716;9.070;2023-08-06T08:42:31;0.80;;;0.77;;
6513;SDS011;3290;47.716;9.070;2023-08-06T08:44:57;1.10;;;0.70;;
6513;SDS011;3290;47.716;9.070;2023-08-06T08:47:22;1.67;;;0.90;;
6513;SDS011;3290;47.716;9.070;2023-08-06T08:49:49;1.00;;;0.70;;
6513;SDS011;3290;47.716;9.070;2023-08-06T08:52:19;2.60;;;1.17;;
6513;SDS011;3290;47.716;9.070;2023-08-06T08:54:47;1.20;;;0.70;;
6513;SDS011;3290;47.716;9.070;2023-08-06T08:57:16;1.20;;;0.70;;
6513;SDS011;3290;47.716;9.070;2023-08-06T08:59:42;3.57;;;0.80;;
6513;SDS011;3290;47.716;9.070;2023-08-06T09:02:08;3.00;;;0.73;;
6513;SDS011;3290;47.716;9.070;2023-08-06T09:04:36;0.80;;;0.80;;
6513;SDS011;3290;47.716;9.070;2023-08-06T09:07:02;0.80;;;0.70;;
6513;SDS011;3290;47.716;9.070;2023-08-06T09:09:33;0.70;;;0.60;;
6513;SDS011;3290;47.716;9.070;2023-08-06T09:12:05;0.70;;;0.70;;
6513;SDS011;3290;47.716;9.070;2023-08-06T09:14:41;6.70;;;1.00;;
6513;SDS011;3290;47.716;9.070;2023-08-06T09:17:07;1.63;;;0.80;;
6513;SDS011;3290;47.716;9.070;2023-08-06T09:19:32;0.70;;;0.60;;
6513;SDS011;3290;47.716;9.070;2023-08-06T09:21:58;0.80;;;0.70;;
6513;SDS011;3290;47.716;9.070;2023-08-06T09:24:24;2.00;;;0.80;;
6513;SDS011;3290;47.716;9.070;2023-08-06T09:26:51;0.90;;;0.70;;
6513;SDS011;3290;47.716;9.070;2023-08-06T09:29:16;1.00;;;0.70;;
6513;SDS011;3290;47.716;9.070;2023-08-06T09:31:45;0.70;;;0.60;;
6513;SDS011;3290;47.716;9.070;2023-08-06T09:34:20;2.40;;;0.60;;
6513;SDS011;3290;47.716;9.070;2023-08-06T09:36:48;1.20;;;0.60;;
6513;SDS011;3290;47.716;9.070;2023-08-06T09:39:14;0.80;;;0.70;;
6513;SDS011;3290;47.716;9.070;2023-08-06T09:41:41;0.70;;;0.70;;
6513;SDS011;3290;47.716;9.070;2023-08-06T09:44:19;0.70;;;0.60;;
6513;SDS011;3290;47.716;9.070;2023-08-06T09:46:50;0.80;;;0.60;;
6513;SDS011;3290;47.716;9.070;2023-08-06T09:49:21;0.70;;;0.60;;
6513;SDS011;3290;47.716;9.070;2023-08-06T09:51:50;0.70;;;0.70;;
6513;SDS011;3290;47.716;9.070;2023-08-06T09:54:18;0.70;;;0.70;;
6513;SDS011;3290;47.716;9.070;2023-08-06T09:56:44;0.80;;;0.70;;
6513;SDS011;3290;47.716;9.070;2023-08-06T09:59:09;1.13;;;0.70;;
6513;SDS011;3290;47.716;9.070;2023-08-06T10:01:38;0.70;;;0.70;;
6513;SDS011;3290;47.716;9.070;2023-08-06T10:04:04;0.70;;;0.60;;
6513;SDS011;3290;47.716;9.070;2023-08-06T10:06:34;0.80;;;0.60;;
6513;SDS011;3290;47.716;9.070;2023-08-06T10:09:03;0.70;;;0.60;;
6513;SDS011;3290;47.716;9.070;2023-08-06T10:11:29;0.70;;;0.60;;
6513;SDS011;3290;47.716;9.070;2023-08-06T10:14:30;0.80;;;0.80;;
6513;SDS011;3290;47.716;9.070;2023-08-06T10:16:52;0.93;;;0.70;;
6513;SDS011;3290;47.716;9.070;2023-08-06T10:19:18;1.57;;;0.60;;
6513;SDS011;3290;47.716;9.070;2023-08-06T10:22:17;0.90;;;0.70;;
6513;SDS011;3290;47.716;9.070;2023-08-06T10:27:11;0.70;;;0.60;;
6513;SDS011;3290;47.716;9.070;2023-08-06T10:29:36;0.90;;;0.80;;
6513;SDS011;3290;47.716;9.070;2023-08-06T10:32:02;0.80;;;0.60;;
6513;SDS011;3290;47.716;9.070;2023-08-06T10:35:12;0.80;;;0.80;;
6513;SDS011;3290;47.716;9.070;2023-08-06T10:37:20;0.80;;;0.60;;
6513;SDS011;3290;47.716;9.070;2023-08-06T10:39:52;0.80;;;0.60;;
6513;SDS011;3290;47.716;9.070;2023-08-06T10:42:21;0.80;;;0.70;;
6513;SDS011;3290;47.716;9.070;2023-08-06T10:47:40;0.80;;;0.70;;
6513;SDS011;3290;47.716;9.070;2023-08-06T10:50:15;0.70;;;0.60;;
6513;SDS011;3290;47.716;9.070;2023-08-06T10:52:43;0.70;;;0.60;;
6513;SDS011;3290;47.716;9.070;2023-08-06T10:55:09;0.70;;;0.60;;
6513;SDS011;3290;47.716;9.070;2023-08-06T10:57:35;0.70;;;0.60;;
6513;SDS011;3290;47.716;9.070;2023-08-06T11:00:00;0.70;;;0.60;;
6513;SDS011;3290;47.716;9.070;2023-08-06T11:02:26;0.70;;;0.60;;
6513;SDS011;3290;47.716;9.070;2023-08-06T11:04:51;0.70;;;0.70;;
6513;SDS011;3290;47.716;9.070;2023-08-06T11:07:17;1.77;;;0.80;;
6513;SDS011;3290;47.716;9.070;2023-08-06T11:09:42;0.70;;;0.60;;
6513;SDS011;3290;47.716;9.070;2023-08-06T11:12:11;0.83;;;0.60;;
6513;SDS011;3290;47.716;9.070;2023-08-06T11:14:36;0.80;;;0.70;;
6513;SDS011;3290;47.716;9.070;2023-08-06T11:17:03;0.80;;;0.70;;
6513;SDS011;3290;47.716;9.070;2023-08-06T11:19:29;0.80;;;0.67;;
6513;SDS011;3290;47.716;9.070;2023-08-06T11:21:55;0.80;;;0.70;;
6513;SDS011;3290;47.716;9.070;2023-08-06T11:24:21;0.77;;;0.63;;
6513;SDS011;3290;47.716;9.070;2023-08-06T11:26:49;0.70;;;0.60;;
6513;SDS011;3290;47.716;9.070;2023-08-06T11:29:15;0.70;;;0.60;;
6513;SDS011;3290;47.716;9.070;2023-08-06T11:31:40;0.80;;;0.60;;
6513;SDS011;3290;47.716;9.070;2023-08-06T11:34:06;0.80;;;0.60;;
6513;SDS011;3290;47.716;9.070;2023-08-06T11:36:32;0.70;;;0.70;;
6513;SDS011;3290;47.716;9.070;2023-08-06T11:39:05;0.70;;;0.63;;
6513;SDS011;3290;47.716;9.070;2023-08-06T11:41:30;0.80;;;0.60;;
6513;SDS011;3290;47.716;9.070;2023-08-06T11:43:57;0.80;;;0.70;;
6513;SDS011;3290;47.716;9.070;2023-08-06T11:46:23;0.97;;;0.70;;
6513;SDS011;3290;47.716;9.070;2023-08-06T11:48:57;0.70;;;0.70;;
6513;SDS011;3290;47.716;9.070;2023-08-06T11:51:27;0.80;;;0.70;;
6513;SDS011;3290;47.716;9.070;2023-08-06T11:53:56;2.03;;;0.70;;
6513;SDS011;3290;47.716;9.070;2023-08-06T11:56:23;0.90;;;0.80;;
6513;SDS011;3290;47.716;9.070;2023-08-06T11:58:50;1.10;;;0.90;;
6513;SDS011;3290;47.716;9.070;2023-08-06T12:01:15;0.70;;;0.60;;
6513;SDS011;3290;47.716;9.070;2023-08-06T12:03:40;0.70;;;0.60;;
6513;SDS011;3290;47.716;9.070;2023-08-06T12:06:06;1.20;;;0.80;;
6513;SDS011;3290;47.716;9.070;2023-08-06T12:08:32;0.70;;;0.60;;
6513;SDS011;3290;47.716;9.070;2023-08-06T12:10:58;0.70;;;0.60;;
6513;SDS011;3290;47.716;9.070;2023-08-06T12:13:23;1.20;;;0.60;;
6513;SDS011;3290;47.716;9.070;2023-08-06T12:15:48;0.80;;;0.70;;
6513;SDS011;3290;47.716;9.070;2023-08-06T12:18:14;0.73;;;0.60;;
6513;SDS011;3290;47.716;9.070;2023-08-06T12:20:39;0.70;;;0.60;;
6513;SDS011;3290;47.716;9.070;2023-08-06T12:23:05;0.80;;;0.60;;
6513;SDS011;3290;47.716;9.070;2023-08-06T12:25:30;0.70;;;0.60;;
6513;SDS011;3290;47.716;9.070;2023-08-06T12:27:55;0.70;;;0.60;;
6513;SDS011;3290;47.716;9.070;2023-08-06T12:30:21;0.70;;;0.70;;
6513;SDS011;3290;47.716;9.070;2023-08-06T12:32:46;0.90;;;0.60;;
6513;SDS011;3290;47.716;9.070;2023-08-06T12:35:11;0.90;;;0.70;;
6513;SDS011;3290;47.716;9.070;2023-08-06T12:37:39;0.77;;;0.67;;
6513;SDS011;3290;47.716;9.070;2023-08-06T12:40:04;0.70;;;0.60;;
6513;SDS011;3290;47.716;9.070;2023-08-06T12:42:30;0.70;;;0.70;;
6513;SDS011;3290;47.716;9.070;2023-08-06T12:44:55;0.70;;;0.60;;
6513;SDS011;3290;47.716;9.070;2023-08-06T12:47:21;0.70;;;0.60;;
6513;SDS011;3290;47.716;9.070;2023-08-06T12:49:46;0.80;;;0.70;;
6513;SDS011;3290;47.716;9.070;2023-08-06T12:52:12;0.70;;;0.63;;
6513;SDS011;3290;47.716;9.070;2023-08-06T12:54:40;0.70;;;0.60;;
6513;SDS011;3290;47.716;9.070;2023-08-06T12:57:05;0.90;;;0.80;;
6513;SDS011;3290;47.716;9.070;2023-08-06T12:59:31;0.90;;;0.70;;
6513;SDS011;3290;47.716;9.070;2023-08-06T13:01:58;1.00;;;0.70;;
6513;SDS011;3290;47.716;9.070;2023-08-06T13:04:23;0.73;;;0.70;;
6513;SDS011;3290;47.716;9.070;2023-08-06T13:06:49;1.00;;;0.80;;
6513;SDS011;3290;47.716;9.070;2023-08-06T13:09:14;0.80;;;0.70;;
6513;SDS011;3290;47.716;9.070;2023-08-06T13:11:40;0.70;;;0.63;;
6513;SDS011;3290;47.716;9.070;2023-08-06T13:14:08;0.90;;;0.73;;
6513;SDS011;3290;47.716;9.070;2023-08-06T13:16:34;0.90;;;0.80;;
6513;SDS011;3290;47.716;9.070;2023-08-06T13:19:00;1.30;;;0.80;;
6513;SDS011;3290;47.716;9.070;2023-08-06T13:21:59;1.17;;;0.83;;
6513;SDS011;3290;47.716;9.070;2023-08-06T13:24:25;2.80;;;0.80;;
6513;SDS011;3290;47.716;9.070;2023-08-06T13:26:50;0.80;;;0.80;;
6513;SDS011;3290;47.716;9.070;2023-08-06T13:29:16;1.27;;;0.70;;
6513;SDS011;3290;47.716;9.070;2023-08-06T13:31:41;0.70;;;0.70;;
6513;SDS011;3290;47.716;9.070;2023-08-06T13:34:06;1.20;;;0.90;;
6513;SDS011;3290;47.716;9.070;2023-08-06T13:36:32;1.10;;;0.90;;
6513;SDS011;3290;47.716;9.070;2023-08-06T13:38:57;0.80;;;0.70;;
6513;SDS011;3290;47.716;9.070;2023-08-06T13:41:22;2.50;;;0.80;;
6513;SDS011;3290;47.716;9.070;2023-08-06T13:43:48;0.93;;;0.77;;
6513;SDS011;3290;47.716;9.070;2023-08-06T13:46:14;0.77;;;0.70;;
6513;SDS011;3290;47.716;9.070;2023-08-06T13:48:43;1.20;;;0.80;;
6513;SDS011;3290;47.716;9.070;2023-08-06T13:51:10;1.83;;;1.00;;
6513;SDS011;3290;47.716;9.070;2023-08-06T13:53:36;1.07;;;0.87;;
6513;SDS011;3290;47.716;9.070;2023-08-06T13:56:02;1.00;;;0.90;;
6513;SDS011;3290;47.716;9.070;2023-08-06T13:58:28;0.80;;;0.70;;
6513;SDS011;3290;47.716;9.070;2023-08-06T14:00:53;1.40;;;0.90;;
6513;SDS011;3290;47.716;9.070;2023-08-06T14:03:19;3.37;;;1.00;;
6513;SDS011;3290;47.716;9.070;2023-08-06T14:05:45;1.13;;;1.03;;
6513;SDS011;3290;47.716;9.070;2023-08-06T14:08:10;1.07;;;0.97;;
6513;SDS011;3290;47.716;9.070;2023-08-06T14:10:36;0.83;;;0.83;;
6513;SDS011;3290;47.716;9.070;2023-08-06T14:13:01;1.23;;;1.13;;
6513;SDS011;3290;47.716;9.070;2023-08-06T14:15:26;4.20;;;0.97;;
6513;SDS011;3290;47.716;9.070;2023-08-06T14:17:52;0.83;;;0.80;;
6513;SDS011;3290;47.716;9.070;2023-08-06T14:20:17;1.10;;;1.00;;
6513;SDS011;3290;47.716;9.070;2023-08-06T14:22:42;1.23;;;0.90;;
6513;SDS011;3290;47.716;9.070;2023-08-06T14:25:08;1.60;;;1.07;;
6513;SDS011;3290;47.716;9.070;2023-08-06T14:27:33;2.20;;;1.20;;
6513;SDS011;3290;47.716;9.070;2023-08-06T14:29:59;1.00;;;0.90;;
6513;SDS011;3290;47.716;9.070;2023-08-06T14:32:25;1.20;;;1.00;;
6513;SDS011;3290;47.716;9.070;2023-08-06T14:34:51;1.20;;;1.10;;
6513;SDS011;3290;47.716;9.070;2023-08-06T14:37:17;1.80;;;1.00;;
6513;SDS011;3290;47.716;9.070;2023-08-06T14:39:42;1.93;;;0.90;;
6513;SDS011;3290;47.716;9.070;2023-08-06T14:42:07;3.57;;;1.00;;
6513;SDS011;3290;47.716;9.070;2023-08-06T14:44:33;1.00;;;0.90;;
6513;SDS011;3290;47.716;9.070;2023-08-06T14:46:58;1.00;;;0.90;;
6513;SDS011;3290;47.716;9.070;2023-08-06T14:49:24;1.00;;;0.80;;
6513;SDS011;3290;47.716;9.070;2023-08-06T14:51:49;0.97;;;0.87;;
6513;SDS011;3290;47.716;9.070;2023-08-06T14:54:15;1.50;;;1.10;;
6513;SDS011;3290;47.716;9.070;2023-08-06T14:56:40;1.13;;;1.03;;
6513;SDS011;3290;47.716;9.070;2023-08-06T14:59:06;1.83;;;1.00;;
6513;SDS011;3290;47.716;9.070;2023-08-06T15:01:31;1.77;;;1.10;;
6513;SDS011;3290;47.716;9.070;2023-08-06T15:03:56;1.87;;;0.93;;
6513;SDS011;3290;47.716;9.070;2023-08-06T15:06:22;0.87;;;0.73;;
6513;SDS011;3290;47.716;9.070;2023-08-06T15:08:47;1.43;;;0.80;;
6513;SDS011;3290;47.716;9.070;2023-08-06T15:11:13;0.80;;;0.80;;
6513;SDS011;3290;47.716;9.070;2023-08-06T15:13:39;1.77;;;1.20;;
6513;SDS011;3290;47.716;9.070;2023-08-06T15:16:05;1.27;;;0.80;;
6513;SDS011;3290;47.716;9.070;2023-08-06T15:18:30;1.33;;;1.10;;
6513;SDS011;3290;47.716;9.070;2023-08-06T15:20:56;5.23;;;1.50;;
6513;SDS011;3290;47.716;9.070;2023-08-06T15:23:22;1.77;;;1.03;;